createdAt,value
2023-01-09T00:02:01.513Z,35.77
2023-01-09T00:07:04.600Z,41.37
2023-01-09T00:12:07.224Z,44.03
2023-01-09T00:17:09.824Z,42.83
2023-01-09T00:22:12.379Z,37.13
2023-01-09T00:27:15.016Z,38.90
2023-01-09T00:32:17.614Z,40.80
2023-01-09T00:37:20.503Z,38.27
2023-01-09T00:42:27.032Z,44.77
2023-01-09T00:47:35.895Z,36.97
2023-01-09T00:52:40.653Z,39.50
2023-01-09T00:57:43.575Z,43.83
2023-01-09T01:02:46.326Z,41.37
2023-01-09T01:07:49.096Z,37.57
2023-01-09T01:12:52.179Z,36.80
2023-01-09T01:17:54.784Z,40.83
2023-01-09T01:22:57.553Z,37.23
2023-01-09T01:28:00.096Z,36.80
2023-01-09T01:33:02.732Z,38.87
2023-01-09T01:38:05.667Z,33.40
2023-01-09T01:43:12.374Z,28.67
2023-01-09T01:48:33.081Z,28.83
2023-01-09T01:58:59.358Z,31.03
2023-01-09T02:04:02.748Z,29.48
2023-01-09T02:09:06.631Z,37.07
2023-01-09T02:14:09.235Z,31.97
2023-01-09T02:19:23.729Z,32.63
2023-01-09T02:25:13.860Z,30.87
2023-01-09T02:30:19.037Z,29.67
2023-01-09T02:35:49.691Z,33.67
2023-01-09T02:41:08.798Z,38.88
2023-01-09T02:46:21.679Z,32.00
2023-01-09T02:51:44.066Z,37.17
2023-01-09T02:56:55.355Z,36.37
2023-01-09T03:02:35.522Z,41.17
2023-01-09T03:08:00.778Z,32.58
2023-01-09T03:13:04.313Z,45.53
2023-01-09T03:18:10.563Z,41.33
2023-01-09T03:23:13.399Z,40.60
2023-01-09T03:28:27.154Z,39.33
2023-01-09T03:33:29.864Z,34.30
2023-01-09T03:38:32.689Z,29.63
2023-01-09T03:43:36.091Z,33.33
2023-01-09T03:48:38.659Z,29.80
2023-01-09T03:53:41.476Z,30.53
2023-01-09T03:58:44.158Z,31.87
2023-01-09T04:03:46.818Z,30.70
2023-01-09T04:08:49.396Z,36.97
2023-01-09T04:13:52.622Z,25.57
2023-01-09T04:18:55.415Z,33.67
2023-01-09T04:23:58.062Z,27.37
2023-01-09T04:29:00.842Z,24.10
2023-01-09T04:34:03.510Z,28.80
2023-01-09T04:39:06.159Z,26.67
2023-01-09T04:44:08.786Z,27.97
2023-01-09T04:49:11.420Z,31.57
2023-01-09T04:54:14.135Z,28.10
2023-01-09T04:59:16.961Z,31.37
2023-01-09T05:04:19.631Z,30.23
2023-01-09T05:09:22.872Z,24.20
2023-01-09T05:14:25.646Z,31.60
2023-01-09T05:19:28.255Z,29.60
2023-01-09T05:24:30.931Z,42.70
2023-01-09T05:29:33.571Z,34.07
2023-01-09T05:34:36.235Z,27.10
2023-01-09T05:39:38.848Z,27.27
2023-01-09T05:44:41.484Z,36.37
2023-01-09T05:49:44.084Z,29.13
2023-01-09T05:54:46.693Z,31.90
2023-01-09T05:59:49.360Z,34.43
2023-01-09T06:04:52.051Z,27.50
2023-01-09T06:09:54.814Z,31.23
2023-01-09T06:15:00.448Z,36.77
2023-01-09T06:20:03.505Z,26.63
2023-01-09T06:25:06.704Z,31.67
2023-01-09T06:30:10.170Z,29.17
2023-01-09T06:35:12.714Z,30.17
2023-01-09T06:40:16.604Z,24.03
2023-01-09T06:45:19.257Z,24.90
2023-01-09T06:50:21.900Z,25.07
2023-01-09T06:55:26.469Z,28.40
2023-01-09T07:00:31.506Z,24.60
2023-01-09T07:05:40.233Z,20.37
2023-01-09T07:10:44.165Z,19.33
2023-01-09T07:15:46.911Z,20.00
2023-01-09T07:20:49.672Z,19.47
2023-01-09T07:25:52.647Z,18.40
2023-01-09T07:30:55.343Z,17.07
2023-01-09T07:35:57.986Z,24.20
2023-01-09T07:41:00.623Z,22.23
2023-01-09T07:46:03.178Z,25.63
2023-01-09T07:51:06.365Z,20.40
2023-01-09T07:56:09.001Z,23.00
2023-01-09T08:01:11.674Z,25.77
2023-01-09T08:06:14.339Z,23.47
2023-01-09T08:11:17.055Z,20.50
2023-01-09T08:16:19.933Z,22.90
2023-01-09T08:21:22.530Z,23.97
2023-01-09T08:26:25.117Z,23.43
2023-01-09T08:31:27.759Z,23.80
2023-01-09T08:36:30.489Z,23.10
2023-01-09T08:41:51.612Z,25.60
2023-01-09T08:47:06.074Z,27.97
2023-01-09T08:52:08.696Z,24.63
2023-01-09T08:57:11.266Z,24.13
2023-01-09T09:02:13.868Z,47.50
2023-01-09T09:07:16.424Z,22.97
2023-01-09T09:12:19.415Z,22.77
2023-01-09T09:17:21.998Z,22.67
2023-01-09T09:22:25.155Z,19.77
2023-01-09T09:27:27.752Z,15.27
2023-01-09T09:32:31.542Z,22.63
2023-01-09T09:37:34.570Z,20.10
2023-01-09T09:43:22.546Z,19.87
2023-01-09T09:48:37.539Z,16.57
2023-01-09T09:53:48.575Z,18.70
2023-01-09T09:58:56.495Z,20.80
2023-01-09T10:04:02.331Z,20.53
2023-01-09T10:09:13.925Z,19.10
2023-01-09T10:14:24.404Z,17.87
2023-01-09T10:24:38.876Z,17.70
2023-01-09T10:29:50.699Z,21.20
2023-01-09T10:34:58.993Z,16.63
2023-01-09T10:40:14.904Z,19.43
2023-01-09T10:45:50.558Z,22.77
2023-01-09T10:50:56.839Z,21.80
2023-01-09T10:56:30.919Z,16.20
2023-01-09T11:01:38.365Z,17.30
2023-01-09T11:06:47.170Z,24.43
2023-01-09T11:11:52.599Z,24.20
2023-01-09T11:16:57.748Z,18.53
2023-01-09T11:22:09.132Z,21.40
2023-01-09T11:27:14.781Z,18.33
2023-01-09T11:32:23.802Z,14.10
2023-01-09T11:37:31.759Z,19.67
2023-01-09T11:42:52.380Z,17.93
2023-01-09T11:47:55.031Z,22.98
2023-01-09T11:53:18.802Z,21.27
2023-01-09T11:58:22.301Z,19.20
2023-01-09T12:03:50.865Z,22.60
2023-01-09T12:09:02.123Z,22.60
2023-01-09T12:14:28.790Z,20.70
2023-01-09T12:19:50.039Z,23.70
2023-01-09T12:24:58.450Z,23.23
2023-01-09T12:30:35.023Z,22.27
2023-01-09T12:35:51.121Z,20.97
2023-01-09T12:40:59.373Z,24.77
2023-01-09T12:46:20.283Z,17.57
2023-01-09T12:51:22.753Z,18.37
2023-01-09T12:56:33.644Z,18.57
2023-01-09T13:01:48.725Z,22.93
2023-01-09T13:06:59.813Z,16.47
2023-01-09T13:12:08.974Z,18.30
2023-01-09T13:17:23.381Z,18.93
2023-01-09T13:22:28.319Z,17.70
2023-01-09T13:27:39.448Z,14.77
2023-01-09T13:32:56.929Z,18.07
2023-01-09T13:37:59.808Z,14.37
2023-01-09T13:43:10.028Z,21.57
2023-01-09T13:48:17.645Z,12.95
2023-01-09T13:53:20.302Z,16.50
2023-01-09T13:58:28.612Z,19.33
2023-01-09T14:03:34.726Z,16.07
2023-01-09T14:08:37.702Z,15.60
2023-01-09T14:13:45.419Z,19.40
2023-01-09T14:19:01.220Z,19.40
2023-01-09T14:24:07.181Z,12.93
2023-01-09T14:29:28.814Z,16.63
2023-01-09T14:34:37.356Z,14.27
2023-01-09T14:39:44.163Z,18.93
2023-01-09T14:44:59.496Z,13.97
2023-01-09T14:50:24.958Z,17.53
2023-01-09T14:55:31.915Z,15.20
2023-01-09T15:00:34.787Z,19.03
2023-01-09T15:05:37.757Z,17.97
2023-01-09T15:10:45.366Z,14.57
2023-01-09T15:15:49.221Z,22.73
2023-01-09T15:20:59.368Z,15.33
2023-01-09T15:26:27.792Z,18.45
2023-01-09T15:31:30.940Z,21.10
2023-01-09T15:36:37.462Z,11.07
2023-01-09T15:41:58.712Z,13.37
2023-01-09T15:47:02.655Z,12.90
2023-01-09T15:52:07.167Z,16.77
2023-01-09T15:57:24.832Z,18.07
2023-01-09T16:02:46.078Z,18.93
2023-01-09T16:07:50.199Z,15.20
2023-01-09T16:12:54.927Z,22.83
2023-01-09T16:18:16.135Z,20.53
2023-01-09T16:23:29.294Z,15.53
2023-01-09T16:28:31.926Z,13.37
2023-01-09T16:33:35.292Z,17.53
2023-01-09T16:38:37.901Z,16.10
2023-01-09T16:43:40.553Z,17.73
2023-01-09T16:48:43.355Z,16.47
2023-01-09T16:53:45.959Z,14.07
2023-01-09T16:58:48.898Z,14.90
2023-01-09T17:03:52.669Z,14.77
2023-01-09T17:08:55.501Z,15.43
2023-01-09T17:13:59.301Z,15.63
2023-01-09T17:19:02.247Z,17.70
2023-01-09T17:24:34.980Z,20.30
2023-01-09T17:29:37.812Z,15.53
2023-01-09T17:34:40.484Z,10.93
2023-01-09T17:39:44.193Z,14.73
2023-01-09T17:44:47.884Z,10.67
2023-01-09T17:49:50.818Z,12.97
2023-01-09T17:54:53.396Z,11.90
2023-01-09T17:59:56.356Z,16.70
2023-01-09T18:04:58.998Z,13.27
2023-01-09T18:10:01.979Z,17.67
2023-01-09T18:15:06.298Z,14.23
2023-01-09T18:20:09.887Z,10.87
2023-01-09T18:25:12.494Z,9.30
2023-01-09T18:30:15.295Z,9.83
2023-01-09T18:35:17.856Z,12.13
2023-01-09T18:40:20.703Z,12.53
2023-01-09T18:45:23.321Z,10.73
2023-01-09T18:50:26.360Z,13.60
2023-01-09T18:55:29.113Z,16.63
2023-01-09T19:00:32.576Z,17.40
2023-01-09T19:05:35.183Z,13.03
2023-01-09T19:10:37.738Z,15.43
2023-01-09T19:15:40.346Z,16.57
2023-01-09T19:20:43.044Z,20.00
2023-01-09T19:25:49.047Z,16.20
2023-01-09T19:30:57.015Z,12.93
2023-01-09T19:35:59.951Z,13.43
2023-01-09T19:41:13.298Z,17.57
2023-01-09T19:46:19.206Z,13.57
2023-01-09T19:51:22.341Z,12.27
2023-01-09T19:56:30.212Z,15.07
2023-01-09T20:01:41.708Z,15.10
2023-01-09T20:06:49.655Z,10.40
2023-01-09T20:11:52.302Z,14.97
2023-01-09T20:16:59.875Z,9.90
2023-01-09T20:22:02.578Z,13.17
2023-01-09T20:27:06.126Z,13.40
2023-01-09T20:32:09.947Z,15.50
2023-01-09T20:37:12.760Z,13.07
2023-01-09T20:42:15.470Z,12.33
2023-01-09T20:47:18.053Z,13.47
2023-01-09T20:52:22.649Z,10.67
2023-01-09T20:57:25.231Z,14.13
2023-01-09T21:02:28.291Z,9.97
2023-01-09T21:07:30.918Z,15.67
2023-01-09T21:12:37.723Z,11.77
2023-01-09T21:17:40.730Z,15.90
2023-01-09T21:22:43.373Z,14.03
2023-01-09T21:27:48.097Z,15.57
2023-01-09T21:32:51.076Z,12.97
2023-01-09T21:37:53.618Z,14.73
2023-01-09T21:43:14.757Z,16.63
2023-01-09T21:48:17.423Z,7.73
2023-01-09T21:53:20.157Z,12.53
2023-01-09T21:58:22.968Z,13.97
2023-01-09T22:03:25.595Z,10.00
2023-01-09T22:08:28.240Z,9.87
2023-01-09T22:13:31.449Z,6.43
2023-01-09T22:18:35.634Z,10.53
2023-01-09T22:23:38.225Z,8.83
2023-01-09T22:28:41.686Z,9.67
2023-01-09T22:33:48.354Z,7.97
2023-01-09T22:38:54.734Z,9.87
2023-01-09T22:43:57.702Z,10.13
2023-01-09T22:49:01.330Z,6.87
2023-01-09T22:54:04.246Z,5.70
2023-01-09T22:59:06.979Z,9.70
2023-01-09T23:04:13.597Z,7.40
2023-01-09T23:09:16.162Z,7.80
2023-01-09T23:14:19.047Z,9.43
2023-01-09T23:19:21.723Z,7.87
2023-01-09T23:24:24.249Z,10.57
2023-01-09T23:29:26.995Z,12.73
2023-01-09T23:34:29.805Z,6.50
2023-01-09T23:39:32.877Z,10.10
2023-01-09T23:44:36.491Z,10.53
2023-01-09T23:49:39.183Z,6.27
2023-01-09T23:54:41.769Z,8.10
2023-01-09T23:59:44.415Z,10.23
